Time;durP1;ratioP1;P1;durP2;ratioP2;P2;SDS_P1;SDS_P2;PMS_P1;PMS_P2;Temp;Humidity;BMP_temperature;BMP_pressure;BME280_temperature;BME280_humidity;BME280_pressure;Samples;Min_cycle;Max_cycle;Signal;HPM_P1;HPM_P2
2023/01/20 00:00:50;;;;;;;0.50;0.20;;;2.10;79.50;;;;;;4153097;28;20541;-87
2023/01/20 00:03:10;;;;;;;0.60;0.30;;;2.10;79.60;;;;;;4150545;28;20112;-87
2023/01/20 00:05:31;;;;;;;0.90;0.20;;;2.10;79.60;;;;;;4150914;28;20049;-87
2023/01/20 00:07:51;;;;;;;0.88;0.30;;;2.10;79.60;;;;;;4153854;28;20064;-88
2023/01/20 00:10:11;;;;;;;2.60;0.20;;;2.10;79.60;;;;;;4155386;28;20088;-88
2023/01/20 00:12:30;;;;;;;1.55;0.20;;;2.10;79.60;;;;;;4134490;28;20052;-85
2023/01/20 00:14:50;;;;;;;0.55;0.20;;;2.10;79.70;;;;;;4155312;28;20075;-87
2023/01/20 00:17:09;;;;;;;4.47;0.35;;;2.10;79.70;;;;;;4156610;28;20052;-88
2023/01/20 00:19:28;;;;;;;0.60;0.20;;;2.10;79.80;;;;;;4138393;28;20037;-88
2023/01/20 00:21:47;;;;;;;1.23;0.30;;;2.10;79.80;;;;;;4154501;28;20040;-88
2023/01/20 00:24:06;;;;;;;0.20;0.10;;;2.10;79.80;;;;;;4154372;28;20099;-88
2023/01/20 00:26:25;;;;;;;0.60;0.25;;;2.10;79.90;;;;;;4154748;28;20037;-86
2023/01/20 00:28:46;;;;;;;1.35;0.30;;;2.10;79.90;;;;;;4155722;28;20668;-87
2023/01/20 00:31:16;;;;;;;0.35;0.10;;;2.10;79.90;;;;;;4138782;28;20049;-87
2023/01/20 00:33:35;;;;;;;1.75;0.10;;;2.10;80.00;;;;;;4134836;28;20113;-86
2023/01/20 00:35:55;;;;;;;1.42;0.10;;;2.10;79.90;;;;;;4138122;28;20088;-87
2023/01/20 00:38:14;;;;;;;0.30;0.10;;;2.20;80.00;;;;;;4137747;28;20093;-86
2023/01/20 00:40:33;;;;;;;1.25;0.20;;;2.10;80.00;;;;;;4153539;28;20245;-87
2023/01/20 00:42:52;;;;;;;0.45;0.10;;;2.20;80.00;;;;;;4141919;28;20148;-87
2023/01/20 00:45:12;;;;;;;1.42;0.30;;;2.20;80.00;;;;;;4157622;28;20559;-87
2023/01/20 00:47:31;;;;;;;0.30;0.10;;;2.20;80.10;;;;;;4163893;28;20079;-87
2023/01/20 00:49:50;;;;;;;0.30;0.08;;;2.20;80.10;;;;;;4159708;28;20090;-87
2023/01/20 00:52:09;;;;;;;1.20;0.20;;;2.20;80.10;;;;;;4149284;28;20041;-86
2023/01/20 00:54:28;;;;;;;2.83;0.40;;;2.30;80.20;;;;;;4153616;28;20152;-88
2023/01/20 00:56:47;;;;;;;1.75;0.30;;;2.20;80.10;;;;;;4131565;28;20620;-86
2023/01/20 00:59:08;;;;;;;0.88;0.25;;;2.20;80.20;;;;;;4149416;28;20508;-88
2023/01/20 01:01:27;;;;;;;2.47;0.40;;;2.40;80.30;;;;;;4152441;28;20107;-88
2023/01/20 01:03:46;;;;;;;1.20;0.10;;;2.30;80.20;;;;;;4135429;28;20045;-88
2023/01/20 01:06:06;;;;;;;0.28;0.13;;;2.30;80.30;;;;;;4131665;28;20065;-87
2023/01/20 01:08:26;;;;;;;0.43;0.20;;;2.30;80.20;;;;;;4130565;28;20805;-87
2023/01/20 01:10:45;;;;;;;0.80;0.20;;;2.30;80.30;;;;;;4154518;28;20035;-86
2023/01/20 01:13:05;;;;;;;1.75;0.30;;;2.30;80.30;;;;;;4131369;28;20832;-88
2023/01/20 01:15:24;;;;;;;0.52;0.30;;;2.30;80.30;;;;;;4142115;28;20040;-86
2023/01/20 01:17:44;;;;;;;0.20;0.10;;;2.30;80.30;;;;;;4148913;28;20043;-87
2023/01/20 01:20:04;;;;;;;1.92;0.22;;;2.30;80.30;;;;;;4150069;28;20064;-87
2023/01/20 01:22:23;;;;;;;2.92;0.73;;;2.40;80.30;;;;;;4137578;28;20056;-87
2023/01/20 01:24:43;;;;;;;0.57;0.22;;;2.40;80.30;;;;;;4154154;28;20052;-87
2023/01/20 01:27:03;;;;;;;1.17;0.70;;;2.40;80.30;;;;;;4149863;28;20044;-87
2023/01/20 01:29:22;;;;;;;2.03;1.10;;;2.40;80.20;;;;;;4149540;28;20083;-86
2023/01/20 01:31:42;;;;;;;1.90;1.10;;;2.40;80.10;;;;;;4147901;28;20504;-87
2023/01/20 01:34:01;;;;;;;2.83;1.40;;;2.40;80.00;;;;;;4153261;28;20029;-87
2023/01/20 01:36:20;;;;;;;1.50;1.20;;;2.40;79.90;;;;;;4145807;28;20436;-86
2023/01/20 01:38:40;;;;;;;4.40;1.05;;;2.40;80.00;;;;;;4151196;28;20155;-87
2023/01/20 01:41:00;;;;;;;5.53;1.10;;;2.40;79.80;;;;;;4149905;28;20675;-88
2023/01/20 01:43:27;;;;;;;2.95;1.30;;;2.40;80.50;;;;;;4149719;28;20071;-87
2023/01/20 01:45:46;;;;;;;1.05;0.80;;;2.40;79.70;;;;;;4153817;28;20267;-88
2023/01/20 01:48:09;;;;;;;3.65;0.60;;;2.40;79.70;;;;;;4127650;28;20401;-88
2023/01/20 01:50:36;;;;;;;2.05;0.70;;;2.30;79.60;;;;;;4154014;28;20045;-88
2023/01/20 01:52:56;;;;;;;1.17;0.60;;;2.30;79.60;;;;;;4139148;28;20429;-88
2023/01/20 01:55:17;;;;;;;0.93;0.60;;;2.30;79.60;;;;;;4140062;28;20096;-90
2023/01/20 01:57:37;;;;;;;1.42;0.70;;;2.30;79.70;;;;;;4134991;28;20100;-89
2023/01/20 01:59:56;;;;;;;0.65;0.60;;;2.30;79.70;;;;;;4154104;28;21059;-90
2023/01/20 02:02:15;;;;;;;0.90;0.60;;;2.30;79.70;;;;;;4140225;28;20033;-88
2023/01/20 02:04:37;;;;;;;1.50;0.50;;;2.30;79.70;;;;;;4135879;28;20064;-88
2023/01/20 02:07:06;;;;;;;1.35;0.65;;;2.30;79.80;;;;;;4149744;28;20040;-88
2023/01/20 02:09:26;;;;;;;1.10;0.70;;;2.20;79.80;;;;;;4158203;28;20052;-86
2023/01/20 02:11:51;;;;;;;1.25;0.63;;;2.20;79.90;;;;;;4163270;28;20177;-87
2023/01/20 02:14:11;;;;;;;1.10;0.60;;;2.20;80.00;;;;;;4155515;28;20044;-88
2023/01/20 02:16:42;;;;;;;1.65;0.90;;;2.20;80.10;;;;;;4150488;28;20044;-88
2023/01/20 02:19:11;;;;;;;1.40;0.90;;;2.20;80.20;;;;;;4152665;28;20121;-89
2023/01/20 02:21:55;;;;;;;1.40;1.02;;;2.20;80.20;;;;;;4153026;28;20051;-89
2023/01/20 02:24:42;;;;;;;1.92;1.15;;;2.20;80.20;;;;;;4130710;28;20130;-89
2023/01/20 02:27:22;;;;;;;2.63;1.30;;;2.20;80.20;;;;;;4150275;28;20088;-89
2023/01/20 02:30:06;;;;;;;6.50;2.20;;;2.20;81.00;;;;;;4154407;28;20051;-87
2023/01/20 02:32:45;;;;;;;4.10;1.92;;;2.20;80.20;;;;;;4143413;28;20035;-87
2023/01/20 02:35:12;;;;;;;3.13;1.50;;;2.20;80.30;;;;;;4137112;28;20736;-89
2023/01/20 02:37:52;;;;;;;2.22;1.58;;;2.20;80.30;;;;;;4139599;28;20459;-88
2023/01/20 02:40:25;;;;;;;4.05;1.83;;;2.20;80.30;;;;;;4141780;28;20108;-88
2023/01/20 02:43:05;;;;;;;4.60;2.00;;;2.10;80.30;;;;;;4148612;28;20067;-88
2023/01/20 02:45:44;;;;;;;3.65;1.80;;;2.10;80.30;;;;;;4154606;28;20044;-91
2023/01/20 02:48:12;;;;;;;4.43;2.00;;;2.10;80.40;;;;;;4144716;28;20109;-89
2023/01/20 02:50:50;;;;;;;3.72;1.73;;;2.10;80.30;;;;;;4141452;28;20096;-91
2023/01/20 02:53:13;;;;;;;2.72;1.63;;;2.10;80.20;;;;;;4156037;28;20036;-90
2023/01/20 02:55:37;;;;;;;1.88;1.15;;;2.10;80.10;;;;;;4142472;28;20466;-91
2023/01/20 02:58:06;;;;;;;3.97;1.85;;;2.10;80.10;;;;;;4150007;28;20079;-90
2023/01/20 03:00:41;;;;;;;2.60;1.38;;;2.00;80.00;;;;;;4135438;28;20097;-89
2023/01/20 03:03:06;;;;;;;2.20;1.40;;;2.00;79.90;;;;;;4157365;28;20117;-92
2023/01/20 03:05:32;;;;;;;3.45;1.40;;;2.10;80.10;;;;;;4146080;28;20065;-91
2023/01/20 03:07:52;;;;;;;2.75;1.60;;;2.00;80.20;;;;;;4137329;28;20033;-92
2023/01/20 03:10:15;;;;;;;2.70;1.40;;;2.00;80.30;;;;;;4160323;28;20810;-91
2023/01/20 03:13:01;;;;;;;4.05;1.50;;;2.00;80.30;;;;;;4138624;28;20146;-89
2023/01/20 03:15:29;;;;;;;3.20;1.52;;;2.00;80.40;;;;;;4158919;28;20080;-90
2023/01/20 03:17:48;;;;;;;2.70;1.55;;;2.00;80.40;;;;;;4159697;28;20079;-86
2023/01/20 03:20:08;;;;;;;2.78;1.63;;;2.00;80.50;;;;;;4157127;28;20055;-89
2023/01/20 03:22:29;;;;;;;2.20;1.52;;;2.00;80.50;;;;;;4153920;28;20076;-90
2023/01/20 03:24:48;;;;;;;3.67;1.67;;;2.00;80.50;;;;;;4138312;28;20072;-89
2023/01/20 03:27:08;;;;;;;2.58;1.77;;;2.00;81.30;;;;;;4140749;28;20571;-88
2023/01/20 03:29:29;;;;;;;2.65;1.52;;;2.00;80.50;;;;;;4157019;28;20125;-88
2023/01/20 03:31:56;;;;;;;3.00;2.00;;;2.00;80.40;;;;;;4158989;28;20047;-90
2023/01/20 03:34:20;;;;;;;5.53;2.60;;;2.00;80.50;;;;;;4161686;28;20080;-89
2023/01/20 03:36:41;;;;;;;5.00;2.75;;;2.00;80.50;;;;;;4140517;28;20044;-88
2023/01/20 03:39:00;;;;;;;3.58;2.63;;;2.00;80.50;;;;;;4156357;28;20401;-88
2023/01/20 03:41:31;;;;;;;5.45;2.35;;;2.00;80.50;;;;;;4150383;28;20444;-87
2023/01/20 03:44:11;;;;;;;5.97;2.35;;;2.00;80.50;;;;;;4156648;28;20147;-88
2023/01/20 03:46:57;;;;;;;2.85;2.10;;;2.00;81.20;;;;;;4133967;28;20045;-88
2023/01/20 03:49:35;;;;;;;3.42;2.05;;;2.00;80.50;;;;;;4138068;28;20084;-88
2023/01/20 03:52:12;;;;;;;5.07;3.10;;;2.00;80.50;;;;;;4151627;28;20101;-88
2023/01/20 03:54:42;;;;;;;5.53;3.22;;;2.00;80.50;;;;;;4138648;28;20061;-89
2023/01/20 03:57:15;;;;;;;6.13;3.05;;;2.00;80.50;;;;;;4150216;28;20091;-89
2023/01/20 03:59:38;;;;;;;5.90;3.28;;;2.00;80.50;;;;;;4146320;28;20107;-88
2023/01/20 04:01:59;;;;;;;5.45;3.40;;;2.00;80.50;;;;;;4150160;28;20099;-88
2023/01/20 04:04:19;;;;;;;5.13;3.20;;;2.00;80.50;;;;;;4150138;28;20152;-89
2023/01/20 04:06:40;;;;;;;5.75;3.40;;;2.00;80.50;;;;;;4132697;28;20121;-88
2023/01/20 04:09:12;;;;;;;8.45;3.85;;;2.10;80.60;;;;;;4137401;28;20068;-88
2023/01/20 04:11:32;;;;;;;9.23;3.75;;;2.00;80.60;;;;;;4133298;28;20071;-88
2023/01/20 04:13:51;;;;;;;9.25;4.05;;;2.00;80.60;;;;;;4139901;28;20510;-88
2023/01/20 04:16:14;;;;;;;5.90;3.80;;;2.00;80.60;;;;;;4138655;28;20457;-87
2023/01/20 04:18:39;;;;;;;;;;;2.00;80.60;;;;;;4139989;28;20545;-86
2023/01/20 04:21:01;;;;;;;4.90;3.10;;;2.20;81.10;;;;;;4148077;28;21029;-87
2023/01/20 04:23:05;;;;;;;8.10;3.80;;;2.00;80.50;;;;;;4135662;28;20953;-88
2023/01/20 04:25:13;;;;;;;6.50;3.78;;;2.10;80.60;;;;;;4122987;28;20057;-88
2023/01/20 04:27:14;;;;;;;6.32;3.42;;;2.10;80.70;;;;;;4135856;28;20644;-89
2023/01/20 04:29:14;;;;;;;3.90;2.60;;;2.00;80.60;;;;;;4156161;28;20026;-86
2023/01/20 04:31:16;;;;;;;4.68;2.83;;;2.00;80.70;;;;;;4130686;28;20026;-88
2023/01/20 04:33:17;;;;;;;6.63;3.00;;;2.10;80.80;;;;;;4153013;28;20025;-88
2023/01/20 04:35:19;;;;;;;4.72;2.35;;;2.10;80.80;;;;;;4157894;28;20044;-89
2023/01/20 04:37:19;;;;;;;5.75;2.72;;;2.10;80.80;;;;;;4153280;28;20030;-88
2023/01/20 04:39:20;;;;;;;4.25;2.40;;;2.10;80.80;;;;;;4116697;28;20478;-88
2023/01/20 04:41:21;;;;;;;6.63;2.60;;;2.10;80.80;;;;;;4130558;28;20437;-87
2023/01/20 04:43:22;;;;;;;4.15;2.40;;;2.10;80.80;;;;;;4135776;28;20463;-86
2023/01/20 04:45:23;;;;;;;8.20;2.63;;;2.10;80.90;;;;;;4134215;28;20061;-87
2023/01/20 04:47:24;;;;;;;4.55;1.92;;;2.10;80.90;;;;;;4156767;28;20033;-88
2023/01/20 04:49:24;;;;;;;5.28;1.98;;;2.10;80.90;;;;;;4133311;28;20240;-88
2023/01/20 04:51:25;;;;;;;4.63;1.70;;;2.20;80.90;;;;;;4140350;28;20022;-86
2023/01/20 04:53:26;;;;;;;5.72;2.03;;;2.20;80.80;;;;;;4137136;28;20056;-88
2023/01/20 04:55:27;;;;;;;2.80;1.90;;;2.20;80.70;;;;;;4164761;28;20025;-85
2023/01/20 04:57:27;;;;;;;6.40;1.70;;;2.20;80.60;;;;;;4145135;28;20022;-86
2023/01/20 04:59:28;;;;;;;3.25;1.38;;;2.20;81.10;;;;;;4149602;28;20026;-86
2023/01/20 05:01:28;;;;;;;3.35;1.40;;;2.20;80.50;;;;;;4130599;28;20434;-86
2023/01/20 05:03:29;;;;;;;2.35;1.25;;;2.20;80.30;;;;;;4115377;28;20022;-85
2023/01/20 05:05:54;;;;;;;5.03;1.20;;;2.20;80.20;;;;;;4152876;28;20083;-85
2023/01/20 05:08:14;;;;;;;1.75;0.90;;;2.10;79.90;;;;;;4142577;28;20029;-86
2023/01/20 05:10:35;;;;;;;1.48;0.95;;;2.10;79.70;;;;;;4144451;28;20029;-86
2023/01/20 05:12:55;;;;;;;1.67;0.90;;;2.10;79.70;;;;;;4139440;28;20491;-86
2023/01/20 05:15:16;;;;;;;2.78;0.95;;;2.10;79.60;;;;;;4132679;28;20030;-86
2023/01/20 05:17:37;;;;;;;0.50;0.40;;;2.00;79.50;;;;;;4131953;28;20030;-85
2023/01/20 05:19:57;;;;;;;1.13;0.70;;;2.00;79.50;;;;;;4145851;28;20528;-86
2023/01/20 05:22:18;;;;;;;1.85;0.80;;;2.00;79.50;;;;;;4149544;28;20113;-85
2023/01/20 05:24:38;;;;;;;0.85;0.68;;;2.00;79.40;;;;;;4148912;28;20120;-85
2023/01/20 05:27:00;;;;;;;1.92;1.00;;;1.90;79.30;;;;;;4155957;28;20033;-86
2023/01/20 05:29:21;;;;;;;1.38;0.73;;;1.90;79.30;;;;;;4136349;28;20120;-86
2023/01/20 05:31:42;;;;;;;1.85;0.70;;;1.90;79.40;;;;;;4153655;28;20029;-87
2023/01/20 05:34:03;;;;;;;0.60;0.43;;;1.90;79.40;;;;;;4143558;28;20124;-86
2023/01/20 05:36:24;;;;;;;1.95;0.50;;;1.80;79.30;;;;;;4162897;28;20553;-86
2023/01/20 05:38:45;;;;;;;3.00;0.77;;;1.80;79.40;;;;;;4147841;28;20444;-86
2023/01/20 05:41:07;;;;;;;0.40;0.30;;;1.80;79.40;;;;;;4143090;28;20081;-86
2023/01/20 05:43:28;;;;;;;1.33;0.40;;;1.90;79.50;;;;;;4129793;28;20402;-85
2023/01/20 05:45:48;;;;;;;1.00;0.50;;;1.80;79.50;;;;;;4134761;28;20038;-85
2023/01/20 05:48:09;;;;;;;1.08;0.50;;;1.70;79.40;;;;;;4150373;28;21016;-85
2023/01/20 05:50:30;;;;;;;0.73;0.30;;;1.70;79.50;;;;;;4151178;28;20079;-85
2023/01/20 05:52:51;;;;;;;1.42;0.35;;;1.70;79.40;;;;;;4151081;28;20048;-86
2023/01/20 05:55:11;;;;;;;0.52;0.35;;;1.70;79.50;;;;;;4153689;28;20044;-86
2023/01/20 05:57:32;;;;;;;1.10;0.47;;;1.80;79.60;;;;;;4148598;28;20104;-86
2023/01/20 05:59:54;;;;;;;1.58;0.73;;;1.70;79.60;;;;;;4132057;28;20268;-85
2023/01/20 06:02:17;;;;;;;1.85;0.82;;;1.70;79.60;;;;;;4147799;28;20026;-85
2023/01/20 06:04:38;;;;;;;1.60;0.80;;;1.70;79.60;;;;;;4146036;28;20040;-84
2023/01/20 06:06:58;;;;;;;0.68;0.40;;;1.70;79.60;;;;;;4151258;28;20780;-85
2023/01/20 06:09:19;;;;;;;0.55;0.30;;;1.60;79.50;;;;;;4154431;28;20040;-85
2023/01/20 06:11:39;;;;;;;0.50;0.30;;;1.60;79.50;;;;;;4153188;28;20045;-85
2023/01/20 06:13:40;;;;;;;0.35;0.30;;;1.60;79.50;;;;;;4155780;28;20111;-86
2023/01/20 06:15:41;;;;;;;0.63;0.22;;;1.60;79.40;;;;;;4140723;28;20032;-85
2023/01/20 06:17:41;;;;;;;0.85;0.43;;;1.60;79.40;;;;;;4164469;28;20037;-84
2023/01/20 06:19:42;;;;;;;0.68;0.40;;;1.60;79.40;;;;;;4154882;28;20034;-85
2023/01/20 06:21:43;;;;;;;0.47;0.38;;;1.60;79.50;;;;;;4155571;28;20083;-86
2023/01/20 06:23:43;;;;;;;0.93;0.45;;;1.60;79.50;;;;;;4155853;28;20038;-85
2023/01/20 06:25:44;;;;;;;0.68;0.55;;;1.50;79.50;;;;;;4133865;28;20038;-85
2023/01/20 06:27:44;;;;;;;1.00;0.50;;;1.50;79.50;;;;;;4119108;28;20026;-85
2023/01/20 06:29:45;;;;;;;3.58;0.60;;;1.50;79.50;;;;;;4156267;28;20025;-85
2023/01/20 06:31:46;;;;;;;1.70;0.85;;;1.60;79.60;;;;;;4152684;28;20057;-85
2023/01/20 06:33:47;;;;;;;1.95;0.98;;;1.50;79.60;;;;;;4153199;28;20026;-86
2023/01/20 06:35:47;;;;;;;2.08;1.10;;;1.50;79.60;;;;;;4134590;28;21642;-85
2023/01/20 06:37:48;;;;;;;3.47;1.20;;;1.50;79.60;;;;;;4154608;28;20022;-86
2023/01/20 06:39:49;;;;;;;2.80;1.08;;;1.50;79.70;;;;;;4144222;28;20026;-86
2023/01/20 06:41:49;;;;;;;1.55;1.10;;;1.50;79.70;;;;;;4156541;28;20408;-85
2023/01/20 06:43:50;;;;;;;3.35;1.25;;;1.50;79.70;;;;;;4158329;28;20033;-85
2023/01/20 06:45:51;;;;;;;2.28;1.20;;;1.50;79.80;;;;;;4152901;28;20563;-86
2023/01/20 06:47:51;;;;;;;2.95;1.33;;;1.50;79.90;;;;;;4141964;28;20140;-86
2023/01/20 06:49:52;;;;;;;3.95;1.23;;;1.60;79.90;;;;;;4149733;28;20021;-86
2023/01/20 06:51:52;;;;;;;1.92;1.15;;;1.50;80.00;;;;;;4134930;28;20034;-86
2023/01/20 06:53:54;;;;;;;3.20;1.58;;;1.50;80.00;;;;;;4159755;28;20029;-86
2023/01/20 06:55:56;;;;;;;2.28;1.48;;;1.50;80.00;;;;;;4136967;28;20038;-86
2023/01/20 06:57:56;;;;;;;3.00;1.60;;;1.50;80.00;;;;;;4141130;28;20864;-86
2023/01/20 06:59:58;;;;;;;5.05;1.15;;;1.60;80.10;;;;;;4110912;28;20058;-86
2023/01/20 07:01:58;;;;;;;2.28;1.50;;;1.50;80.10;;;;;;4133693;28;20037;-85
2023/01/20 07:03:59;;;;;;;2.75;1.45;;;1.50;80.10;;;;;;4117327;28;20022;-86
2023/01/20 07:06:01;;;;;;;2.15;1.13;;;1.50;80.10;;;;;;4154886;28;20049;-86
2023/01/20 07:08:02;;;;;;;2.15;1.30;;;1.50;80.10;;;;;;4154238;28;20029;-86
2023/01/20 07:10:03;;;;;;;2.53;1.60;;;1.50;80.20;;;;;;4155352;28;20040;-85
2023/01/20 07:12:03;;;;;;;4.18;1.50;;;1.50;80.10;;;;;;4154774;28;20080;-86
2023/01/20 07:14:05;;;;;;;4.43;1.40;;;1.50;80.20;;;;;;4132075;28;20553;-86
2023/01/20 07:16:06;;;;;;;7.68;1.80;;;1.50;80.20;;;;;;4155311;28;20034;-85
2023/01/20 07:18:06;;;;;;;2.65;1.20;;;1.50;80.20;;;;;;4133575;28;20037;-86
2023/01/20 07:20:08;;;;;;;2.65;1.10;;;1.50;80.30;;;;;;4150386;28;20056;-86
2023/01/20 07:22:09;;;;;;;2.72;1.33;;;1.50;80.30;;;;;;4156146;28;20198;-86
2023/01/20 07:24:10;;;;;;;4.97;1.40;;;1.50;80.40;;;;;;4154324;28;20525;-86
2023/01/20 07:26:13;;;;;;;3.47;1.20;;;1.50;80.40;;;;;;4153365;28;20037;-86
2023/01/20 07:28:14;;;;;;;8.73;1.35;;;1.50;80.40;;;;;;4155318;28;20036;-86
2023/01/20 07:30:15;;;;;;;4.15;1.20;;;1.60;80.50;;;;;;4138146;28;20041;-86
2023/01/20 07:32:16;;;;;;;2.17;0.90;;;1.50;80.40;;;;;;4136957;28;20190;-86
2023/01/20 07:34:17;;;;;;;1.83;0.90;;;1.60;80.40;;;;;;4138262;28;20022;-86
2023/01/20 07:36:17;;;;;;;1.20;0.90;;;1.60;80.40;;;;;;4158082;28;20033;-86
2023/01/20 07:38:18;;;;;;;1.70;0.90;;;1.50;80.30;;;;;;4159333;28;20026;-86
2023/01/20 07:40:19;;;;;;;3.28;0.90;;;1.50;80.30;;;;;;4158540;28;20033;-85
2023/01/20 07:42:39;;;;;;;4.97;0.70;;;1.60;80.30;;;;;;4161170;28;20025;-86
2023/01/20 07:45:00;;;;;;;5.20;0.45;;;1.60;80.30;;;;;;4151022;28;20056;-85
2023/01/20 07:47:01;;;;;;;0.93;0.70;;;1.60;80.30;;;;;;4116774;28;20039;-86
2023/01/20 07:49:05;;;;;;;1.27;0.63;;;1.60;80.30;;;;;;4138706;28;20180;-85
2023/01/20 07:51:25;;;;;;;5.22;0.98;;;1.60;80.30;;;;;;4150128;28;20695;-86
2023/01/20 07:53:27;;;;;;;7.10;0.98;;;1.70;80.30;;;;;;4157125;28;20029;-85
2023/01/20 07:55:47;;;;;;;3.25;1.02;;;1.60;80.30;;;;;;4153892;28;20076;-86
2023/01/20 07:58:08;;;;;;;3.92;0.82;;;1.60;80.20;;;;;;4139144;28;20041;-85
2023/01/20 08:00:22;;;;;;;2.40;0.90;;;1.60;80.30;;;;;;4154838;28;20430;-86
2023/01/20 08:02:43;;;;;;;2.22;0.93;;;1.60;80.40;;;;;;4136204;28;20025;-86
2023/01/20 08:05:05;;;;;;;2.60;1.00;;;1.60;80.40;;;;;;4155204;28;20033;-86
2023/01/20 08:07:25;;;;;;;1.52;0.75;;;1.60;80.30;;;;;;4151766;28;20168;-87
2023/01/20 08:09:47;;;;;;;7.32;1.10;;;1.60;80.40;;;;;;4152554;28;20076;-85
2023/01/20 08:12:07;;;;;;;3.95;1.40;;;1.60;80.40;;;;;;4150017;28;20523;-86
2023/01/20 08:14:28;;;;;;;3.15;1.38;;;1.60;80.40;;;;;;4151086;28;20042;-86
2023/01/20 08:16:49;;;;;;;2.85;1.40;;;1.60;80.40;;;;;;4149762;28;20026;-86
2023/01/20 08:19:09;;;;;;;8.48;2.38;;;1.60;80.40;;;;;;4152135;28;20709;-86
2023/01/20 08:21:31;;;;;;;5.57;2.75;;;1.60;80.40;;;;;;4156346;28;20121;-86
2023/01/20 08:23:55;;;;;;;10.05;5.75;;;1.60;80.40;;;;;;4150087;28;20034;-86
2023/01/20 08:26:16;;;;;;;4.28;2.50;;;1.70;80.50;;;;;;4140220;28;20062;-86
2023/01/20 08:28:36;;;;;;;2.40;1.40;;;1.70;80.50;;;;;;4149106;28;20041;-86
2023/01/20 08:31:06;;;;;;;3.40;1.42;;;1.70;81.30;;;;;;4154717;28;20021;-85
2023/01/20 08:33:27;;;;;;;2.65;1.25;;;1.70;80.60;;;;;;4137301;28;20033;-85
2023/01/20 08:35:47;;;;;;;3.40;1.67;;;1.70;80.60;;;;;;4152132;28;20497;-86
2023/01/20 08:38:08;;;;;;;4.88;2.80;;;1.70;80.70;;;;;;4137813;28;20038;-86
2023/01/20 08:40:29;;;;;;;6.35;2.00;;;1.70;80.80;;;;;;4157242;28;20044;-85
2023/01/20 08:42:49;;;;;;;3.45;1.60;;;1.80;80.80;;;;;;4155215;28;20043;-85
2023/01/20 08:45:10;;;;;;;5.57;1.48;;;1.80;81.60;;;;;;4153520;28;20060;-86
2023/01/20 08:47:35;;;;;;;3.22;1.30;;;1.80;80.80;;;;;;4154578;28;20058;-85
2023/01/20 08:49:56;;;;;;;4.45;1.20;;;1.80;80.70;;;;;;4149593;28;20065;-85
2023/01/20 08:52:17;;;;;;;2.67;1.30;;;1.80;80.80;;;;;;4156079;28;20034;-86
2023/01/20 08:54:37;;;;;;;3.58;1.30;;;1.90;80.80;;;;;;4151464;28;20053;-85
2023/01/20 08:56:58;;;;;;;3.33;1.60;;;1.90;80.70;;;;;;4155548;28;20121;-86
2023/01/20 08:59:19;;;;;;;3.67;1.95;;;1.90;80.70;;;;;;4155538;28;20064;-86
2023/01/20 09:01:41;;;;;;;5.38;1.92;;;1.90;80.60;;;;;;4159284;28;20087;-85
2023/01/20 09:04:02;;;;;;;5.25;2.15;;;1.90;80.60;;;;;;4148036;28;20066;-85
2023/01/20 09:06:23;;;;;;;5.75;2.40;;;1.90;80.50;;;;;;4138176;28;20046;-85
2023/01/20 09:08:43;;;;;;;5.13;2.17;;;1.90;80.50;;;;;;4134867;28;20026;-85
2023/01/20 09:11:12;;;;;;;5.38;2.20;;;1.90;80.50;;;;;;4126507;28;20050;-86
2023/01/20 09:13:33;;;;;;;5.93;2.47;;;1.90;80.50;;;;;;4153178;28;20074;-86
2023/01/20 09:15:54;;;;;;;5.55;2.63;;;1.90;80.40;;;;;;4138900;28;20063;-85
2023/01/20 09:18:14;;;;;;;9.55;2.97;;;1.90;80.40;;;;;;4152355;28;20052;-86
2023/01/20 09:20:36;;;;;;;7.75;2.80;;;2.00;80.40;;;;;;4151282;28;20021;-86
2023/01/20 09:23:00;;;;;;;4.88;2.65;;;1.90;80.30;;;;;;4145974;28;20048;-86
2023/01/20 09:25:21;;;;;;;5.35;2.78;;;1.90;80.30;;;;;;4134214;28;20210;-86
2023/01/20 09:27:42;;;;;;;5.95;2.92;;;1.90;80.30;;;;;;4154149;28;20045;-86
2023/01/20 09:30:01;;;;;;;5.50;3.13;;;1.90;80.30;;;;;;4152233;28;20068;-86
2023/01/20 09:32:20;;;;;;;4.93;2.75;;;2.00;80.30;;;;;;4131744;28;20808;-86
2023/01/20 09:34:40;;;;;;;4.88;2.92;;;1.90;80.20;;;;;;4129224;28;20560;-85
2023/01/20 09:43:52;;;;;;;5.97;3.00;;;1.90;80.20;;;;;;4143978;28;20039;-86
2023/01/20 09:45:23;;;;;;;6.95;3.25;;;2.00;80.30;;;;;;4152723;28;20040;-86
2023/01/20 09:47:46;;;;;;;5.07;2.83;;;1.80;80.20;;;;;;4155789;28;20088;-86
2023/01/20 09:53:03;;;;;;;9.38;4.38;;;1.80;80.20;;;;;;4154487;28;20032;-85
2023/01/20 09:55:52;;;;;;;7.38;3.28;;;1.90;80.30;;;;;;4138827;28;20037;-85
2023/01/20 09:58:35;;;;;;;7.07;3.35;;;1.80;80.20;;;;;;4153907;28;20074;-86
2023/01/20 10:01:11;;;;;;;7.45;3.17;;;1.80;80.20;;;;;;4151909;28;20037;-85
2023/01/20 10:03:45;;;;;;;6.50;3.70;;;1.80;80.30;;;;;;4152921;28;20152;-85
2023/01/20 10:06:13;;;;;;;7.38;3.38;;;1.80;80.30;;;;;;4141550;28;21910;-85
2023/01/20 10:08:44;;;;;;;5.00;3.30;;;1.80;80.40;;;;;;4136135;28;20044;-84
2023/01/20 10:11:05;;;;;;;7.47;3.92;;;1.80;80.50;;;;;;4135891;28;20036;-85
2023/01/20 10:13:51;;;;;;;7.93;3.20;;;1.90;80.60;;;;;;4142194;28;20060;-85
2023/01/20 10:16:11;;;;;;;8.40;3.00;;;1.90;80.60;;;;;;4153739;28;20494;-85
2023/01/20 10:18:50;;;;;;;6.45;3.33;;;1.90;80.60;;;;;;4155320;28;20052;-85
2023/01/20 10:21:20;;;;;;;45.67;20.95;;;1.90;80.70;;;;;;4159117;28;20047;-85
2023/01/20 10:23:51;;;;;;;13.30;7.43;;;1.90;80.60;;;;;;4151069;28;20868;-86
2023/01/20 10:26:29;;;;;;;17.63;8.13;;;1.90;80.60;;;;;;4156584;28;20036;-86
2023/01/20 10:28:58;;;;;;;19.27;9.57;;;1.90;80.60;;;;;;4147987;28;20553;-86
2023/01/20 10:31:24;;;;;;;8.73;5.25;;;1.90;80.60;;;;;;4149049;28;20135;-86
2023/01/20 10:33:44;;;;;;;7.90;4.75;;;2.00;80.60;;;;;;4136027;28;20047;-86
2023/01/20 10:36:07;;;;;;;8.95;4.50;;;2.00;80.60;;;;;;4154934;28;20068;-86
2023/01/20 10:38:57;;;;;;;10.13;4.70;;;2.00;80.60;;;;;;4142243;28;20080;-86
2023/01/20 10:41:27;;;;;;;14.40;4.97;;;2.00;80.70;;;;;;4149604;28;20033;-85
2023/01/20 10:43:47;;;;;;;10.18;4.55;;;2.00;80.70;;;;;;4135031;28;20045;-86
2023/01/20 10:46:14;;;;;;;10.82;4.70;;;2.00;80.70;;;;;;4151937;28;20138;-86
2023/01/20 10:48:40;;;;;;;11.70;5.00;;;2.00;80.70;;;;;;4154571;28;20071;-85
2023/01/20 10:51:25;;;;;;;8.38;4.55;;;2.10;80.80;;;;;;4140988;28;20044;-84
2023/01/20 10:53:56;;;;;;;14.15;5.03;;;2.10;80.80;;;;;;4149315;28;20071;-86
2023/01/20 10:56:38;;;;;;;8.38;4.82;;;2.10;80.80;;;;;;4137483;28;20044;-86
2023/01/20 10:59:02;;;;;;;11.27;5.30;;;2.10;80.80;;;;;;4142955;28;20095;-85
2023/01/20 11:01:21;;;;;;;14.18;6.13;;;2.20;80.80;;;;;;4152162;28;20087;-86
2023/01/20 11:03:43;;;;;;;13.65;6.55;;;2.20;80.80;;;;;;4151035;28;20166;-85
2023/01/20 11:06:03;;;;;;;14.65;6.70;;;2.20;80.70;;;;;;4147819;28;20044;-85
2023/01/20 11:08:27;;;;;;;16.48;6.85;;;2.20;80.80;;;;;;4151301;28;20040;-86
2023/01/20 11:10:57;;;;;;;16.10;6.85;;;2.20;80.70;;;;;;4151930;28;20075;-85
2023/01/20 11:13:16;;;;;;;11.93;6.72;;;2.20;80.70;;;;;;4156511;28;20072;-86
2023/01/20 11:15:45;;;;;;;15.30;7.47;;;2.20;80.60;;;;;;4147590;28;20044;-85
2023/01/20 11:18:13;;;;;;;16.60;7.50;;;2.20;80.70;;;;;;4139421;28;20052;-86
2023/01/20 11:20:35;;;;;;;17.02;7.97;;;2.20;80.70;;;;;;4137544;28;20173;-86
2023/01/20 11:22:55;;;;;;;18.02;7.80;;;2.30;80.80;;;;;;4156372;28;20036;-85
2023/01/20 11:25:24;;;;;;;18.25;7.82;;;2.30;80.80;;;;;;4144034;28;20045;-86
2023/01/20 11:27:45;;;;;;;17.08;7.93;;;2.30;80.80;;;;;;4150389;28;20072;-85
2023/01/20 11:30:15;;;;;;;25.30;8.88;;;2.30;80.80;;;;;;4133668;28;20045;-85
2023/01/20 11:32:37;;;;;;;16.00;8.52;;;2.30;80.80;;;;;;4148437;28;20397;-86
2023/01/20 11:34:58;;;;;;;14.32;7.63;;;2.30;80.80;;;;;;4137358;28;20093;-86
2023/01/20 11:37:20;;;;;;;18.27;8.30;;;2.40;80.90;;;;;;4153104;28;20728;-89
2023/01/20 11:39:49;;;;;;;21.77;9.88;;;2.40;80.90;;;;;;4137356;28;20045;-87
2023/01/20 11:42:17;;;;;;;20.27;9.52;;;2.40;81.00;;;;;;4137522;28;20108;-87
2023/01/20 11:44:49;;;;;;;24.83;9.95;;;2.50;81.80;;;;;;4134751;28;20037;-88
2023/01/20 11:47:36;;;;;;;19.75;9.77;;;2.50;81.10;;;;;;4151525;28;20060;-88
2023/01/20 11:50:26;;;;;;;22.33;9.52;;;2.50;81.20;;;;;;4154054;28;20079;-88
2023/01/20 11:52:46;;;;;;;20.83;8.85;;;2.60;81.20;;;;;;4100971;28;20046;-88
2023/01/20 11:55:19;;;;;;;21.48;9.88;;;2.60;81.10;;;;;;4084370;28;20127;-88
2023/01/20 11:57:44;;;;;;;23.20;9.90;;;2.60;81.00;;;;;;4097773;28;20560;-89
2023/01/20 12:00:24;;;;;;;28.60;9.75;;;2.60;81.00;;;;;;4095044;28;20162;-88
2023/01/20 12:02:55;;;;;;;22.23;9.68;;;2.70;81.00;;;;;;4099250;28;20086;-88
2023/01/20 12:05:24;;;;;;;20.20;9.27;;;2.80;81.00;;;;;;4104177;28;20122;-89
2023/01/20 12:07:47;;;;;;;26.23;10.27;;;2.70;80.90;;;;;;4087797;28;20062;-89
2023/01/20 12:10:19;;;;;;;;;;;2.80;81.00;;;;;;4099604;28;20185;-88
2023/01/20 12:12:48;;;;;;;26.42;9.55;;;2.70;81.30;;;;;;4082452;28;19973;-88
2023/01/20 12:15:10;;;;;;;23.23;8.57;;;2.80;80.80;;;;;;4093895;28;20049;-86
2023/01/20 12:17:41;;;;;;;23.80;8.82;;;2.80;80.80;;;;;;4102464;28;20078;-87
2023/01/20 12:20:25;;;;;;;28.35;9.52;;;2.80;80.70;;;;;;4099915;28;20971;-88
2023/01/20 12:23:20;;;;;;;20.80;9.18;;;2.80;80.80;;;;;;4082088;28;20431;-89